Time;durP1;ratioP1;P1;durP2;ratioP2;P2;SDS_P1;SDS_P2;PMS_P1;PMS_P2;Temp;Humidity;BMP_temperature;BMP_pressure;BME280_temperature;BME280_humidity;BME280_pressure;Samples;Min_cycle;Max_cycle;Signal;HPM_P1;HPM_P2
2021/12/22 00:01:42;;;;;;;25.85;14.02;;;;;;;;;;2469578;56;21135;-79
2021/12/22 00:04:09;;;;;;;27.80;16.48;;;;;;;;;;2244517;60;21131;-79
2021/12/22 00:06:36;;;;;;;31.98;15.48;;;;;;;;;;2244427;60;21131;-79
2021/12/22 00:09:05;;;;;;;28.42;15.23;;;;;;;;;;2244743;60;22104;-79
2021/12/22 00:11:32;;;;;;;31.40;15.13;;;;;;;;;;2469782;56;21127;-79
2021/12/22 00:13:59;;;;;;;26.08;13.55;;;;;;;;;;2468941;56;21131;-79
2021/12/22 00:16:26;;;;;;;22.02;13.65;;;;;;;;;;2449028;56;21180;-79
2021/12/22 00:18:53;;;;;;;25.98;15.23;;;;;;;;;;2226465;60;21063;-79
2021/12/22 00:21:20;;;;;;;27.35;14.75;;;;;;;;;;2448942;56;21321;-79
2021/12/22 00:23:47;;;;;;;26.58;15.70;;;;;;;;;;2449179;56;21159;-79
2021/12/22 00:26:15;;;;;;;26.92;14.57;;;;;;;;;;2226775;60;21638;-77
2021/12/22 00:28:42;;;;;;;28.73;15.27;;;;;;;;;;2447785;56;21151;-76
2021/12/22 00:31:12;;;;;;;33.03;17.60;;;;;;;;;;2448276;56;22143;-77
2021/12/22 00:33:46;;;;;;;32.78;15.05;;;;;;;;;;2226897;60;21067;-77
2021/12/22 00:36:13;;;;;;;29.12;14.55;;;;;;;;;;2448335;56;21115;-77
2021/12/22 00:38:40;;;;;;;29.10;14.82;;;;;;;;;;2448193;56;21112;-77
2021/12/22 00:41:07;;;;;;;28.38;14.35;;;;;;;;;;2226771;60;21538;-77
2021/12/22 00:43:34;;;;;;;26.73;16.17;;;;;;;;;;2226671;60;21051;-77
2021/12/22 00:46:01;;;;;;;25.50;13.43;;;;;;;;;;2226873;60;21166;-77
2021/12/22 00:48:28;;;;;;;30.33;15.32;;;;;;;;;;2226820;60;21146;-77
2021/12/22 00:50:55;;;;;;;26.62;14.38;;;;;;;;;;2226642;60;21090;-77
2021/12/22 00:53:22;;;;;;;27.05;13.62;;;;;;;;;;2226756;60;21146;-77
2021/12/22 00:55:49;;;;;;;26.98;14.10;;;;;;;;;;2226645;60;21206;-77
2021/12/22 00:58:16;;;;;;;31.02;16.08;;;;;;;;;;2226444;60;21079;-77
2021/12/22 01:00:46;;;;;;;23.00;13.75;;;;;;;;;;2226809;60;21599;-77
2021/12/22 01:03:13;;;;;;;28.50;14.18;;;;;;;;;;2226523;60;21063;-78
2021/12/22 01:05:40;;;;;;;27.52;14.45;;;;;;;;;;2226661;60;21082;-78
2021/12/22 01:08:07;;;;;;;25.25;13.62;;;;;;;;;;2227019;60;21734;-77
2021/12/22 01:10:35;;;;;;;27.05;12.65;;;;;;;;;;2226245;60;21385;-77
2021/12/22 01:13:04;;;;;;;28.33;13.38;;;;;;;;;;2226691;60;21087;-78
2021/12/22 01:15:31;;;;;;;26.30;14.35;;;;;;;;;;2226909;60;21095;-77
2021/12/22 01:18:02;;;;;;;26.62;13.80;;;;;;;;;;2226175;60;21793;-77
2021/12/22 01:20:34;;;;;;;29.98;14.10;;;;;;;;;;2448249;56;21075;-78
2021/12/22 01:23:03;;;;;;;31.45;14.80;;;;;;;;;;2448887;56;21131;-78
2021/12/22 01:25:30;;;;;;;25.67;13.23;;;;;;;;;;2226975;60;21067;-78
2021/12/22 01:27:58;;;;;;;26.10;14.07;;;;;;;;;;2227080;60;21083;-77
2021/12/22 01:30:26;;;;;;;24.17;13.15;;;;;;;;;;2227115;60;21159;-78
2021/12/22 01:32:55;;;;;;;23.75;12.98;;;;;;;;;;2227423;60;21147;-78
2021/12/22 01:35:23;;;;;;;25.12;13.70;;;;;;;;;;2448342;56;21206;-78
2021/12/22 01:37:50;;;;;;;22.00;12.80;;;;;;;;;;2227444;60;21153;-78
2021/12/22 01:40:18;;;;;;;27.33;14.65;;;;;;;;;;2226659;60;21616;-77
2021/12/22 01:42:45;;;;;;;23.55;14.30;;;;;;;;;;2226870;60;21051;-78
2021/12/22 01:45:27;;;;;;;21.50;12.27;;;;;;;;;;2447787;56;21060;-78
2021/12/22 01:50:42;;;;;;;24.08;13.00;;;;;;;;;;2226034;60;21047;-77
2021/12/22 01:53:30;;;;;;;34.17;14.40;;;;;;;;;;2226819;60;21118;-77
2021/12/22 01:56:06;;;;;;;24.48;14.25;;;;;;;;;;2227427;60;21139;-79
2021/12/22 02:01:10;;;;;;;28.40;17.20;;;;;;;;;;2336215;57;28254;-76
2021/12/22 02:03:37;;;;;;;25.55;14.05;;;;;;;;;;2345294;57;21054;-78
2021/12/22 02:06:05;;;;;;;22.13;14.10;;;;;;;;;;2342745;57;21536;-79
2021/12/22 02:08:32;;;;;;;26.50;14.27;;;;;;;;;;2348338;57;21089;-79
2021/12/22 02:11:00;;;;;;;23.65;12.82;;;;;;;;;;2346787;56;21426;-78
2021/12/22 02:13:31;;;;;;;24.17;12.80;;;;;;;;;;2594022;53;21034;-79
2021/12/22 02:16:05;;;;;;;22.98;13.23;;;;;;;;;;2346088;57;21106;-79
2021/12/22 02:18:32;;;;;;;23.50;12.70;;;;;;;;;;2593898;53;21112;-79
2021/12/22 02:21:00;;;;;;;33.17;14.38;;;;;;;;;;2346805;57;21114;-78
2021/12/22 02:23:27;;;;;;;26.67;13.23;;;;;;;;;;2346728;57;21050;-78
2021/12/22 02:25:59;;;;;;;22.45;12.52;;;;;;;;;;2347380;57;21037;-78
2021/12/22 02:28:30;;;;;;;22.30;12.73;;;;;;;;;;2346905;57;21156;-78
2021/12/22 02:30:57;;;;;;;25.48;13.98;;;;;;;;;;2594047;53;21139;-78
2021/12/22 02:33:32;;;;;;;25.12;13.57;;;;;;;;;;2346404;57;21045;-79
2021/12/22 02:36:19;;;;;;;21.33;11.90;;;;;;;;;;2347111;57;21038;-78
2021/12/22 02:38:47;;;;;;;26.90;13.68;;;;;;;;;;2593351;53;21132;-79
2021/12/22 02:41:16;;;;;;;23.08;12.25;;;;;;;;;;2594316;53;21543;-78
2021/12/22 02:43:46;;;;;;;20.12;11.25;;;;;;;;;;2346668;57;21858;-79
2021/12/22 02:46:14;;;;;;;23.35;13.15;;;;;;;;;;2346701;57;21116;-78
2021/12/22 02:48:41;;;;;;;22.73;13.02;;;;;;;;;;2346755;57;21705;-79
2021/12/22 02:51:09;;;;;;;24.12;12.75;;;;;;;;;;2347276;57;21054;-79
2021/12/22 02:53:43;;;;;;;24.87;12.27;;;;;;;;;;2346796;57;21532;-78
2021/12/22 02:56:30;;;;;;;24.00;12.25;;;;;;;;;;2345770;57;21026;-77
2021/12/22 02:59:12;;;;;;;18.10;11.30;;;;;;;;;;2592549;53;21053;-78
2021/12/22 03:02:05;;;;;;;17.98;10.82;;;;;;;;;;2347625;57;21659;-78
2021/12/22 03:04:42;;;;;;;26.70;12.15;;;;;;;;;;2593129;53;21050;-77
2021/12/22 03:07:13;;;;;;;20.73;10.88;;;;;;;;;;2593426;53;21042;-77
2021/12/22 03:09:40;;;;;;;24.73;13.65;;;;;;;;;;2345538;57;21109;-77
2021/12/22 03:12:11;;;;;;;21.25;12.95;;;;;;;;;;2592203;53;21105;-77
2021/12/22 03:14:38;;;;;;;22.45;11.73;;;;;;;;;;2590972;53;21540;-77
2021/12/22 03:17:05;;;;;;;24.50;12.98;;;;;;;;;;2345106;57;21508;-77
2021/12/22 03:19:34;;;;;;;20.75;11.95;;;;;;;;;;2342983;57;21149;-76
2021/12/22 03:22:04;;;;;;;19.83;10.85;;;;;;;;;;2344995;57;21686;-77
2021/12/22 03:24:32;;;;;;;18.17;10.10;;;;;;;;;;2345114;57;21109;-76
2021/12/22 03:27:02;;;;;;;21.30;12.75;;;;;;;;;;2344814;57;21043;-77
2021/12/22 03:29:30;;;;;;;20.45;11.73;;;;;;;;;;2343987;57;21530;-76
2021/12/22 03:31:57;;;;;;;25.70;12.00;;;;;;;;;;2344935;57;21089;-77
2021/12/22 03:34:24;;;;;;;22.65;11.25;;;;;;;;;;2591150;53;21014;-77
2021/12/22 03:36:51;;;;;;;22.17;12.82;;;;;;;;;;2345105;57;21600;-77
2021/12/22 03:39:18;;;;;;;21.92;11.75;;;;;;;;;;2591406;53;21030;-77
2021/12/22 03:41:47;;;;;;;20.80;10.88;;;;;;;;;;2591714;53;21042;-77
2021/12/22 03:44:14;;;;;;;22.65;12.00;;;;;;;;;;2344687;57;21588;-77
2021/12/22 03:46:41;;;;;;;22.65;12.85;;;;;;;;;;2343765;57;21097;-77
2021/12/22 03:49:09;;;;;;;21.92;11.85;;;;;;;;;;2343723;57;21110;-77
2021/12/22 03:51:36;;;;;;;20.55;11.63;;;;;;;;;;2591598;53;21054;-77
2021/12/22 03:54:04;;;;;;;21.12;12.20;;;;;;;;;;2345385;57;21972;-79
2021/12/22 03:56:31;;;;;;;24.23;13.10;;;;;;;;;;2592734;53;21102;-79
2021/12/22 03:58:58;;;;;;;20.17;11.70;;;;;;;;;;2591713;53;21572;-79
2021/12/22 04:01:25;;;;;;;21.15;12.07;;;;;;;;;;2592077;53;21114;-78
2021/12/22 04:03:56;;;;;;;21.60;12.45;;;;;;;;;;2592181;53;21133;-79
2021/12/22 04:06:23;;;;;;;21.87;11.65;;;;;;;;;;2345985;57;21059;-79
2021/12/22 04:08:50;;;;;;;25.48;13.02;;;;;;;;;;2345271;57;21133;-79
2021/12/22 04:11:17;;;;;;;22.37;12.32;;;;;;;;;;2346056;57;21572;-79
2021/12/22 04:13:44;;;;;;;21.15;11.48;;;;;;;;;;2592008;53;21109;-79
2021/12/22 04:16:11;;;;;;;21.55;11.88;;;;;;;;;;2345650;57;21061;-79
2021/12/22 04:18:38;;;;;;;18.17;9.95;;;;;;;;;;2591637;53;21054;-79
2021/12/22 04:21:05;;;;;;;20.70;10.82;;;;;;;;;;2592454;53;21053;-79
2021/12/22 04:23:32;;;;;;;18.87;10.55;;;;;;;;;;2345489;57;21121;-79
2021/12/22 04:26:00;;;;;;;26.70;14.38;;;;;;;;;;2346096;57;21026;-79
2021/12/22 04:28:27;;;;;;;24.45;13.30;;;;;;;;;;2345176;57;21054;-79
2021/12/22 04:30:54;;;;;;;23.25;11.15;;;;;;;;;;2345884;57;21049;-79
2021/12/22 04:33:21;;;;;;;21.02;11.60;;;;;;;;;;2345113;57;21108;-79
2021/12/22 04:35:49;;;;;;;26.77;12.77;;;;;;;;;;2345944;57;21094;-79
2021/12/22 04:38:16;;;;;;;25.20;13.10;;;;;;;;;;2344939;57;21082;-77
2021/12/22 04:40:43;;;;;;;22.27;11.88;;;;;;;;;;2591112;53;21518;-77
2021/12/22 04:43:10;;;;;;;21.73;12.20;;;;;;;;;;2344851;57;21117;-77
2021/12/22 04:45:37;;;;;;;20.55;11.00;;;;;;;;;;2344502;57;21056;-77
2021/12/22 04:50:40;;;;;;;23.85;15.00;;;;;;;;;;2335892;57;37806;-77
2021/12/22 04:53:11;;;;;;;24.17;13.43;;;;;;;;;;2349096;57;21619;-79
2021/12/22 04:55:38;;;;;;;21.77;11.98;;;;;;;;;;2595290;53;21094;-78
2021/12/22 04:58:05;;;;;;;26.52;12.60;;;;;;;;;;2594977;53;21033;-79
2021/12/22 05:00:33;;;;;;;26.80;14.10;;;;;;;;;;2346587;57;21125;-80
2021/12/22 05:03:00;;;;;;;22.37;12.35;;;;;;;;;;2347677;57;21530;-79
2021/12/22 05:05:27;;;;;;;27.25;13.35;;;;;;;;;;2347138;57;21558;-80
2021/12/22 05:07:55;;;;;;;23.83;11.77;;;;;;;;;;2347181;57;21113;-79
2021/12/22 05:10:22;;;;;;;26.35;13.00;;;;;;;;;;2346580;57;21065;-80
2021/12/22 05:12:49;;;;;;;26.00;12.77;;;;;;;;;;2347324;57;21054;-80
2021/12/22 05:15:19;;;;;;;23.35;12.32;;;;;;;;;;2593403;53;21038;-79
2021/12/22 05:20:36;;;;;;;28.33;12.43;;;;;;;;;;2330643;57;21164;-81
2021/12/22 05:23:03;;;;;;;22.10;12.25;;;;;;;;;;2347554;57;21046;-80
2021/12/22 05:25:30;;;;;;;18.60;10.88;;;;;;;;;;2347485;57;21175;-80
2021/12/22 05:27:57;;;;;;;23.85;12.98;;;;;;;;;;2593541;53;21589;-81
2021/12/22 05:30:24;;;;;;;22.60;12.18;;;;;;;;;;2347102;57;21582;-80
2021/12/22 05:32:54;;;;;;;21.25;11.60;;;;;;;;;;2347305;57;21038;-80
2021/12/22 05:35:21;;;;;;;24.12;12.82;;;;;;;;;;2594150;53;21085;-80
2021/12/22 05:37:48;;;;;;;25.85;12.88;;;;;;;;;;2594148;53;21077;-80
2021/12/22 05:40:15;;;;;;;22.67;11.55;;;;;;;;;;2593900;52;21042;-80
2021/12/22 05:42:42;;;;;;;25.20;12.32;;;;;;;;;;2347198;57;21050;-80
2021/12/22 05:45:10;;;;;;;27.92;12.93;;;;;;;;;;2593463;53;21109;-80
2021/12/22 05:47:37;;;;;;;26.70;12.68;;;;;;;;;;2346474;57;21053;-81
2021/12/22 05:50:06;;;;;;;27.83;14.77;;;;;;;;;;2346053;57;21062;-80
2021/12/22 05:52:34;;;;;;;29.75;14.40;;;;;;;;;;2347066;57;21200;-81
2021/12/22 05:55:01;;;;;;;27.00;13.95;;;;;;;;;;2593965;52;21136;-80
2021/12/22 05:57:27;;;;;;;26.12;12.63;;;;;;;;;;2346987;57;21046;-80
2021/12/22 05:59:54;;;;;;;24.73;12.00;;;;;;;;;;2346997;57;21109;-79
2021/12/22 06:02:21;;;;;;;23.50;11.38;;;;;;;;;;2346148;57;21034;-81
2021/12/22 06:04:48;;;;;;;24.73;12.75;;;;;;;;;;2592476;52;21535;-81
2021/12/22 06:07:15;;;;;;;23.92;13.57;;;;;;;;;;2346597;57;21115;-80
2021/12/22 06:09:42;;;;;;;30.40;14.15;;;;;;;;;;2593075;53;21130;-81
2021/12/22 06:12:09;;;;;;;26.10;11.93;;;;;;;;;;2346472;57;21042;-80
2021/12/22 06:14:36;;;;;;;25.37;12.85;;;;;;;;;;2593584;53;21085;-80
2021/12/22 06:17:04;;;;;;;23.98;12.43;;;;;;;;;;2593592;53;21151;-81
2021/12/22 06:19:31;;;;;;;28.90;14.25;;;;;;;;;;2345613;57;21045;-80
2021/12/22 06:21:58;;;;;;;24.70;12.48;;;;;;;;;;2346302;57;21573;-80
2021/12/22 06:24:25;;;;;;;23.15;11.65;;;;;;;;;;2346332;57;21101;-80
2021/12/22 06:26:51;;;;;;;29.17;14.35;;;;;;;;;;2593523;52;21058;-80
2021/12/22 06:29:19;;;;;;;30.92;13.52;;;;;;;;;;2593194;53;21067;-81
2021/12/22 06:31:46;;;;;;;30.55;14.70;;;;;;;;;;2593634;52;21117;-80
2021/12/22 06:34:13;;;;;;;25.67;12.27;;;;;;;;;;2346465;57;21066;-81
2021/12/22 06:36:40;;;;;;;26.80;12.75;;;;;;;;;;2593631;53;21089;-80
2021/12/22 06:39:07;;;;;;;25.90;12.15;;;;;;;;;;2593059;52;21030;-80
2021/12/22 06:41:34;;;;;;;27.15;13.35;;;;;;;;;;2592961;53;21046;-80
2021/12/22 06:44:02;;;;;;;24.92;12.10;;;;;;;;;;2593601;52;21538;-81
2021/12/22 06:46:29;;;;;;;32.30;14.45;;;;;;;;;;2592647;53;21094;-81
2021/12/22 06:48:56;;;;;;;27.30;13.48;;;;;;;;;;2345822;57;21089;-81
2021/12/22 06:51:23;;;;;;;27.62;13.95;;;;;;;;;;2346176;57;22009;-80
2021/12/22 06:53:50;;;;;;;32.63;14.13;;;;;;;;;;2346456;57;21042;-80
2021/12/22 06:56:17;;;;;;;32.25;13.68;;;;;;;;;;2592834;53;21102;-81
2021/12/22 06:58:44;;;;;;;30.40;13.40;;;;;;;;;;2592438;53;21622;-75
2021/12/22 07:01:16;;;;;;;32.17;13.07;;;;;;;;;;2593312;53;21558;-82
2021/12/22 07:03:43;;;;;;;30.45;12.88;;;;;;;;;;2346625;57;21058;-81
2021/12/22 07:06:10;;;;;;;29.15;13.50;;;;;;;;;;2346694;57;21070;-81
2021/12/22 07:08:37;;;;;;;29.95;12.57;;;;;;;;;;2593339;53;21069;-81
2021/12/22 07:11:04;;;;;;;29.98;13.15;;;;;;;;;;2593264;53;21058;-81
2021/12/22 07:16:08;;;;;;;31.33;12.85;;;;;;;;;;2605051;52;22553;-76
2021/12/22 07:18:36;;;;;;;33.17;13.60;;;;;;;;;;2350175;57;21058;-78
2021/12/22 07:21:04;;;;;;;36.08;14.35;;;;;;;;;;2596401;52;21046;-78
2021/12/22 07:23:31;;;;;;;38.60;14.73;;;;;;;;;;2346704;57;21066;-77
2021/12/22 07:25:58;;;;;;;35.03;13.82;;;;;;;;;;2346560;57;21054;-77
2021/12/22 07:28:25;;;;;;;30.90;13.45;;;;;;;;;;2347237;57;21113;-77
2021/12/22 07:30:52;;;;;;;37.78;15.10;;;;;;;;;;2594967;52;21520;-77
2021/12/22 07:33:19;;;;;;;31.67;12.98;;;;;;;;;;2594864;53;21564;-77
2021/12/22 07:35:53;;;;;;;39.63;15.45;;;;;;;;;;2347620;57;21109;-77
2021/12/22 07:38:29;;;;;;;35.58;15.07;;;;;;;;;;2594295;53;21359;-77
2021/12/22 07:40:57;;;;;;;39.22;15.35;;;;;;;;;;2594428;53;21030;-77
2021/12/22 07:46:01;;;;;;;40.10;16.40;;;;;;;;;;2605614;53;22125;-76
2021/12/22 07:48:29;;;;;;;35.40;14.02;;;;;;;;;;2350417;57;21085;-78
2021/12/22 07:50:57;;;;;;;43.05;15.48;;;;;;;;;;2596960;53;21034;-79
2021/12/22 07:53:24;;;;;;;38.40;14.80;;;;;;;;;;2347607;57;21037;-77
2021/12/22 07:55:53;;;;;;;43.67;15.52;;;;;;;;;;2347173;57;21042;-77
2021/12/22 07:58:20;;;;;;;39.10;14.80;;;;;;;;;;2594328;52;21050;-77
2021/12/22 08:00:47;;;;;;;38.50;15.35;;;;;;;;;;2347207;57;21054;-77
2021/12/22 08:03:14;;;;;;;36.03;14.80;;;;;;;;;;2346931;57;21581;-77
2021/12/22 08:05:42;;;;;;;44.05;16.92;;;;;;;;;;2346883;57;21046;-77
2021/12/22 08:08:09;;;;;;;39.85;15.32;;;;;;;;;;2346964;57;21635;-77
2021/12/22 08:10:36;;;;;;;43.35;15.63;;;;;;;;;;2594156;53;21037;-77
2021/12/22 08:13:03;;;;;;;38.30;15.25;;;;;;;;;;2594302;53;21133;-77
2021/12/22 08:15:31;;;;;;;34.85;14.23;;;;;;;;;;2594316;53;21540;-77
2021/12/22 08:17:58;;;;;;;35.38;14.13;;;;;;;;;;2346773;57;21232;-77
2021/12/22 08:20:25;;;;;;;40.17;15.25;;;;;;;;;;2347154;57;21073;-77
2021/12/22 08:22:52;;;;;;;32.63;12.88;;;;;;;;;;2346702;57;21105;-77
2021/12/22 08:25:19;;;;;;;33.83;13.93;;;;;;;;;;2594567;53;21607;-77
2021/12/22 08:27:46;;;;;;;32.67;12.60;;;;;;;;;;2347206;57;21700;-77
2021/12/22 08:30:14;;;;;;;39.45;15.20;;;;;;;;;;2346688;57;21592;-76
2021/12/22 08:32:41;;;;;;;28.45;12.00;;;;;;;;;;2594518;53;21042;-77
2021/12/22 08:35:11;;;;;;;32.75;13.88;;;;;;;;;;2347134;57;21121;-77
2021/12/22 08:40:24;;;;;;;32.80;13.07;;;;;;;;;;2345131;57;21077;-77
2021/12/22 08:42:52;;;;;;;32.10;13.32;;;;;;;;;;2346264;57;21097;-77
2021/12/22 08:45:19;;;;;;;35.72;13.93;;;;;;;;;;2594355;53;21588;-77
2021/12/22 08:47:47;;;;;;;32.20;14.07;;;;;;;;;;2346638;57;21061;-77
2021/12/22 08:50:16;;;;;;;30.62;12.50;;;;;;;;;;2346919;57;21110;-77
2021/12/22 08:52:43;;;;;;;31.05;13.02;;;;;;;;;;2346733;57;21050;-77
2021/12/22 08:55:11;;;;;;;28.38;12.00;;;;;;;;;;2346976;57;21597;-77
2021/12/22 08:57:38;;;;;;;29.23;12.65;;;;;;;;;;2345947;57;21613;-77
2021/12/22 09:00:06;;;;;;;31.42;13.23;;;;;;;;;;2345893;57;21050;-77
2021/12/22 09:02:33;;;;;;;31.87;13.05;;;;;;;;;;2592649;53;21648;-77
2021/12/22 09:05:00;;;;;;;28.77;12.30;;;;;;;;;;2345840;57;21615;-77
2021/12/22 09:07:27;;;;;;;32.38;12.10;;;;;;;;;;2345829;57;21129;-77
2021/12/22 09:09:54;;;;;;;33.78;12.30;;;;;;;;;;2591845;52;21525;-77
2021/12/22 09:12:22;;;;;;;32.22;12.37;;;;;;;;;;2592732;53;21073;-77
2021/12/22 09:14:49;;;;;;;28.80;13.00;;;;;;;;;;2345739;57;21117;-77
2021/12/22 09:17:16;;;;;;;26.60;11.57;;;;;;;;;;2345943;57;21057;-77
2021/12/22 09:19:43;;;;;;;36.90;13.62;;;;;;;;;;2345029;57;21125;-77
2021/12/22 09:22:10;;;;;;;28.70;13.13;;;;;;;;;;2346024;57;21152;-79
2021/12/22 09:24:37;;;;;;;34.38;13.07;;;;;;;;;;2346218;57;21069;-77
2021/12/22 09:27:04;;;;;;;31.37;13.75;;;;;;;;;;2592563;53;21055;-77
2021/12/22 09:29:31;;;;;;;25.27;11.70;;;;;;;;;;2345301;57;21699;-77
2021/12/22 09:31:59;;;;;;;30.45;12.45;;;;;;;;;;2592527;53;21109;-77
2021/12/22 09:34:26;;;;;;;30.27;13.43;;;;;;;;;;2345726;57;21105;-77
2021/12/22 09:36:53;;;;;;;32.55;12.55;;;;;;;;;;2346205;57;21034;-77
2021/12/22 09:39:20;;;;;;;31.80;13.38;;;;;;;;;;2591857;53;21608;-77
2021/12/22 09:41:47;;;;;;;27.77;11.35;;;;;;;;;;2346154;57;21038;-77
2021/12/22 09:44:14;;;;;;;27.83;11.95;;;;;;;;;;2591459;52;21038;-77
2021/12/22 09:46:42;;;;;;;27.13;11.00;;;;;;;;;;2346897;57;21061;-77
2021/12/22 09:49:24;;;;;;;25.25;11.55;;;;;;;;;;2346449;57;21045;-77
2021/12/22 09:54:41;;;;;;;27.30;12.43;;;;;;;;;;2346503;57;21030;-78
2021/12/22 09:57:08;;;;;;;28.17;11.48;;;;;;;;;;2593435;53;21113;-77
2021/12/22 09:59:35;;;;;;;26.65;10.75;;;;;;;;;;2592570;53;21625;-77
2021/12/22 10:02:02;;;;;;;28.92;10.77;;;;;;;;;;2593117;52;21038;-77
2021/12/22 10:04:29;;;;;;;23.77;10.27;;;;;;;;;;2346254;57;21053;-77
2021/12/22 10:06:57;;;;;;;21.90;11.73;;;;;;;;;;2592994;53;21042;-77
2021/12/22 10:09:25;;;;;;;26.12;11.15;;;;;;;;;;2346467;57;21054;-77
2021/12/22 10:11:52;;;;;;;23.60;10.77;;;;;;;;;;2592926;53;21173;-77
2021/12/22 10:14:24;;;;;;;28.73;12.30;;;;;;;;;;2344842;57;21549;-77
2021/12/22 10:16:52;;;;;;;20.73;10.50;;;;;;;;;;2590999;53;21501;-76
2021/12/22 10:19:20;;;;;;;25.12;10.68;;;;;;;;;;2344012;57;21564;-75
2021/12/22 10:21:52;;;;;;;27.77;11.68;;;;;;;;;;2591674;53;21094;-76
2021/12/22 10:24:21;;;;;;;25.70;11.85;;;;;;;;;;2343966;57;22200;-77
2021/12/22 10:26:48;;;;;;;27.25;13.50;;;;;;;;;;2344042;57;21052;-77
2021/12/22 10:29:15;;;;;;;24.02;11.30;;;;;;;;;;2343607;57;21042;-76
2021/12/22 10:31:43;;;;;;;27.08;12.30;;;;;;;;;;2591576;53;21173;-76
2021/12/22 10:34:11;;;;;;;33.17;13.45;;;;;;;;;;2344926;57;21042;-76
2021/12/22 10:36:44;;;;;;;25.92;11.85;;;;;;;;;;2344992;57;21635;-77
2021/12/22 10:39:18;;;;;;;29.17;13.55;;;;;;;;;;2344765;57;21120;-77
2021/12/22 10:41:45;;;;;;;30.52;11.77;;;;;;;;;;2344840;57;21117;-76
2021/12/22 10:44:12;;;;;;;33.00;13.52;;;;;;;;;;2591429;52;21101;-77
2021/12/22 10:46:39;;;;;;;24.55;11.40;;;;;;;;;;2591794;52;21073;-77
2021/12/22 10:49:17;;;;;;;27.62;12.15;;;;;;;;;;2342888;57;21034;-77
2021/12/22 10:51:46;;;;;;;27.40;11.85;;;;;;;;;;2347930;57;21097;-78
2021/12/22 10:54:15;;;;;;;36.53;14.55;;;;;;;;;;2593655;53;21395;-76
2021/12/22 10:56:42;;;;;;;31.58;13.50;;;;;;;;;;2592138;53;21525;-77
2021/12/22 10:59:10;;;;;;;27.92;12.63;;;;;;;;;;2426197;52;21030;-72
2021/12/22 11:01:38;;;;;;;41.35;11.68;;;;;;;;;;2373646;56;21039;-73
2021/12/22 11:04:14;;;;;;;26.75;12.23;;;;;;;;;;2411811;52;21031;-74
2021/12/22 11:06:41;;;;;;;27.42;11.70;;;;;;;;;;2373776;56;21062;-73
2021/12/22 11:09:13;;;;;;;26.17;11.52;;;;;;;;;;2373306;56;21082;-73
2021/12/22 11:11:41;;;;;;;26.07;12.37;;;;;;;;;;2374307;56;21047;-73
2021/12/22 11:14:10;;;;;;;31.27;11.93;;;;;;;;;;2373308;56;21024;-73
2021/12/22 11:16:56;;;;;;;26.45;11.43;;;;;;;;;;2391989;52;21062;-73
2021/12/22 11:19:24;;;;;;;29.02;12.45;;;;;;;;;;2373094;56;21035;-73
2021/12/22 11:21:59;;;;;;;29.35;12.18;;;;;;;;;;2372989;56;21007;-72
2021/12/22 11:24:26;;;;;;;28.27;13.77;;;;;;;;;;2373558;56;21031;-73
2021/12/22 11:26:54;;;;;;;28.80;11.82;;;;;;;;;;2373671;56;21100;-74
2021/12/22 11:29:22;;;;;;;30.98;12.85;;;;;;;;;;2372804;56;21541;-74
2021/12/22 11:31:50;;;;;;;25.02;12.45;;;;;;;;;;2373824;56;21024;-74
2021/12/22 11:34:18;;;;;;;30.83;13.05;;;;;;;;;;2373814;56;21165;-73
2021/12/22 11:36:45;;;;;;;28.90;14.23;;;;;;;;;;2373587;56;21034;-73
2021/12/22 11:39:12;;;;;;;25.12;12.10;;;;;;;;;;2432943;52;21521;-73
2021/12/22 11:41:44;;;;;;;26.85;12.13;;;;;;;;;;2373587;56;21026;-74
2021/12/22 11:44:11;;;;;;;23.48;11.75;;;;;;;;;;2373534;56;21098;-73
2021/12/22 11:46:38;;;;;;;33.22;13.98;;;;;;;;;;2372890;56;21011;-74
2021/12/22 11:49:06;;;;;;;26.85;12.40;;;;;;;;;;2373302;56;21059;-74
2021/12/22 11:51:35;;;;;;;28.95;12.05;;;;;;;;;;2373310;56;21022;-74
2021/12/22 11:54:10;;;;;;;29.98;13.35;;;;;;;;;;2373466;56;22155;-74
2021/12/22 11:56:38;;;;;;;30.45;12.88;;;;;;;;;;2373322;56;21026;-74
2021/12/22 11:59:05;;;;;;;28.87;12.15;;;;;;;;;;2372798;56;21856;-73
2021/12/22 12:01:33;;;;;;;34.53;13.98;;;;;;;;;;2373519;56;21027;-73
2021/12/22 12:04:19;;;;;;;33.05;13.77;;;;;;;;;;2373699;56;21026;-73
2021/12/22 12:06:47;;;;;;;23.50;12.35;;;;;;;;;;2489160;52;21066;-73
2021/12/22 12:09:15;;;;;;;31.17;13.73;;;;;;;;;;2373529;56;21031;-73
2021/12/22 12:11:46;;;;;;;31.20;15.00;;;;;;;;;;2373544;56;21522;-73
2021/12/22 12:14:34;;;;;;;32.75;14.30;;;;;;;;;;2374290;56;21015;-73
2021/12/22 12:23:16;;;;;;;32.22;14.87;;;;;;;;;;2374095;52;21026;-73
2021/12/22 12:25:43;;;;;;;30.85;14.70;;;;;;;;;;2393571;52;21035;-73
2021/12/22 12:28:15;;;;;;;35.72;15.20;;;;;;;;;;2374136;56;21320;-74
2021/12/22 12:30:44;;;;;;;30.25;13.45;;;;;;;;;;2460101;52;21115;-73
2021/12/22 12:33:12;;;;;;;33.20;15.10;;;;;;;;;;2373652;56;21023;-73
2021/12/22 12:36:13;;;;;;;32.53;15.32;;;;;;;;;;2374192;56;21035;-74
2021/12/22 12:41:20;;;;;;;32.80;13.95;;;;;;;;;;2354876;57;22572;-73
2021/12/22 12:43:49;;;;;;;33.22;14.30;;;;;;;;;;2345968;57;21057;-74
2021/12/22 12:46:37;;;;;;;34.20;14.50;;;;;;;;;;2346515;57;21068;-74
2021/12/22 12:49:24;;;;;;;29.90;13.55;;;;;;;;;;2345513;57;21122;-75
2021/12/22 12:51:57;;;;;;;33.58;15.57;;;;;;;;;;2345071;57;21556;-74
2021/12/22 12:54:28;;;;;;;28.62;12.90;;;;;;;;;;2345321;57;21041;-74
2021/12/22 12:56:57;;;;;;;34.25;15.45;;;;;;;;;;2344498;57;21508;-74
2021/12/22 12:59:27;;;;;;;34.05;16.10;;;;;;;;;;2344865;57;21586;-74
2021/12/22 13:01:58;;;;;;;36.47;16.48;;;;;;;;;;2343299;57;21046;-74
2021/12/22 13:04:26;;;;;;;30.60;13.70;;;;;;;;;;2344691;57;21643;-74
2021/12/22 13:07:01;;;;;;;28.73;13.40;;;;;;;;;;2345022;57;21065;-74
2021/12/22 13:09:29;;;;;;;31.50;15.18;;;;;;;;;;2344695;57;22172;-74
2021/12/22 13:12:00;;;;;;;36.70;17.12;;;;;;;;;;2344606;57;21114;-74
2021/12/22 13:17:13;;;;;;;35.05;15.50;;;;;;;;;;2343672;53;20986;-74
2021/12/22 13:19:41;;;;;;;37.45;17.30;;;;;;;;;;2344062;57;21050;-74
2021/12/22 13:22:17;;;;;;;33.35;15.80;;;;;;;;;;2344454;57;21113;-76
2021/12/22 13:24:45;;;;;;;31.92;14.63;;;;;;;;;;2344777;57;21021;-76
2021/12/22 13:27:12;;;;;;;34.15;16.65;;;;;;;;;;2344591;57;21118;-76
2021/12/22 13:29:39;;;;;;;35.28;15.25;;;;;;;;;;2344565;57;21058;-76
2021/12/22 13:32:08;;;;;;;33.05;14.98;;;;;;;;;;2344676;57;21121;-76
2021/12/22 13:34:43;;;;;;;42.30;18.08;;;;;;;;;;2344622;53;21599;-76
2021/12/22 13:37:10;;;;;;;37.03;16.73;;;;;;;;;;2360432;53;21066;-76
2021/12/22 13:39:45;;;;;;;37.63;16.42;;;;;;;;;;2344760;57;21110;-76
2021/12/22 13:42:12;;;;;;;38.47;16.80;;;;;;;;;;2344982;57;21429;-75
2021/12/22 13:44:39;;;;;;;43.53;18.87;;;;;;;;;;2344779;57;22195;-76
2021/12/22 13:47:06;;;;;;;38.08;17.75;;;;;;;;;;2343642;57;21038;-76
2021/12/22 13:49:34;;;;;;;36.50;16.73;;;;;;;;;;2344681;57;21105;-76
2021/12/22 13:52:03;;;;;;;42.13;18.42;;;;;;;;;;2342938;57;21026;-76
2021/12/22 13:54:32;;;;;;;37.05;16.60;;;;;;;;;;2343335;57;21066;-76
2021/12/22 13:57:00;;;;;;;43.08;21.00;;;;;;;;;;2344006;57;21350;-76
2021/12/22 13:59:30;;;;;;;41.28;18.12;;;;;;;;;;2344248;57;21106;-75
2021/12/22 14:01:57;;;;;;;41.42;17.60;;;;;;;;;;2501665;53;21121;-75
2021/12/22 14:07:09;;;;;;;39.35;19.00;;;;;;;;;;2355644;57;22611;-76
2021/12/22 14:09:42;;;;;;;46.88;18.95;;;;;;;;;;2346195;57;21061;-76
2021/12/22 14:12:11;;;;;;;37.97;17.90;;;;;;;;;;2350832;53;21077;-76
2021/12/22 14:14:39;;;;;;;48.13;20.25;;;;;;;;;;2346140;57;21086;-75
2021/12/22 14:17:07;;;;;;;39.22;17.77;;;;;;;;;;2346387;57;21089;-75
2021/12/22 14:19:35;;;;;;;40.67;18.05;;;;;;;;;;2345863;57;21441;-75
2021/12/22 14:22:04;;;;;;;42.20;19.35;;;;;;;;;;2346274;57;21098;-74
2021/12/22 14:24:32;;;;;;;40.25;17.90;;;;;;;;;;2346054;57;21102;-75
2021/12/22 14:27:00;;;;;;;35.22;16.48;;;;;;;;;;2345741;57;21037;-77
2021/12/22 14:29:28;;;;;;;39.95;19.02;;;;;;;;;;2345853;57;21054;-77
2021/12/22 14:31:59;;;;;;;38.95;17.87;;;;;;;;;;2346217;57;21584;-76
2021/12/22 14:34:26;;;;;;;37.92;17.85;;;;;;;;;;2346213;57;21528;-77
2021/12/22 14:36:54;;;;;;;43.00;19.45;;;;;;;;;;2346164;57;21029;-76
2021/12/22 14:39:21;;;;;;;38.15;16.60;;;;;;;;;;2345676;57;21540;-77
2021/12/22 14:41:48;;;;;;;43.20;17.75;;;;;;;;;;2345670;57;21097;-76
2021/12/22 14:44:22;;;;;;;37.78;18.95;;;;;;;;;;2400313;53;21568;-76
2021/12/22 14:46:51;;;;;;;37.78;16.30;;;;;;;;;;2345944;57;21066;-76
2021/12/22 14:49:19;;;;;;;37.53;16.35;;;;;;;;;;2345635;57;21046;-76
2021/12/22 14:51:47;;;;;;;39.05;17.23;;;;;;;;;;2346169;57;21101;-76
2021/12/22 14:54:15;;;;;;;42.77;18.20;;;;;;;;;;2414559;53;21544;-75
2021/12/22 14:56:43;;;;;;;40.70;17.98;;;;;;;;;;2346164;57;21683;-76
2021/12/22 14:59:10;;;;;;;40.70;17.75;;;;;;;;;;2400347;53;21540;-76
2021/12/22 15:01:37;;;;;;;37.67;17.50;;;;;;;;;;2346264;57;21121;-75